Time;durP1;ratioP1;P1;durP2;ratioP2;P2;SDS_P1;SDS_P2;PMS_P1;PMS_P2;Temp;Humidity;BMP_temperature;BMP_pressure;BME280_temperature;BME280_humidity;BME280_pressure;Samples;Min_cycle;Max_cycle;Signal;HPM_P1;HPM_P2
2023/12/16 00:02:05;;;;;;;31.77;23.50;;;;;;;;;;5019148;28;20057;-50
2023/12/16 00:04:31;;;;;;;35.97;25.25;;;;;;;;;;5013323;28;20030;-54
2023/12/16 00:06:56;;;;;;;37.05;25.70;;;;;;;;;;5017223;28;20057;-54
2023/12/16 00:09:22;;;;;;;34.35;25.40;;;;;;;;;;5024127;28;20047;-54
2023/12/16 00:11:48;;;;;;;35.22;24.60;;;;;;;;;;5025303;28;20041;-52
2023/12/16 00:14:14;;;;;;;30.38;23.92;;;;;;;;;;5026700;28;20031;-53
2023/12/16 00:16:44;;;;;;;40.13;27.20;;;;;;;;;;5014074;28;20077;-53
2023/12/16 00:19:10;;;;;;;36.70;25.30;;;;;;;;;;5014133;28;20112;-53
2023/12/16 00:21:37;;;;;;;33.67;24.20;;;;;;;;;;5019080;28;20033;-54
2023/12/16 00:24:03;;;;;;;30.98;23.90;;;;;;;;;;5033741;28;20029;-50
2023/12/16 00:26:29;;;;;;;35.28;24.60;;;;;;;;;;5033539;28;20032;-50
2023/12/16 00:28:55;;;;;;;30.38;23.05;;;;;;;;;;5024494;28;20026;-50
2023/12/16 00:31:21;;;;;;;34.95;23.83;;;;;;;;;;5014117;28;20026;-50
2023/12/16 00:33:46;;;;;;;31.20;23.77;;;;;;;;;;5013829;28;20022;-50
2023/12/16 00:36:12;;;;;;;29.35;23.95;;;;;;;;;;5013700;28;20104;-52
2023/12/16 00:38:38;;;;;;;30.98;23.85;;;;;;;;;;5013807;28;20032;-52
2023/12/16 00:41:04;;;;;;;32.55;24.05;;;;;;;;;;5013843;28;20046;-54
2023/12/16 00:43:31;;;;;;;31.23;23.02;;;;;;;;;;5013653;28;20022;-50
2023/12/16 00:45:57;;;;;;;28.88;22.83;;;;;;;;;;5013525;28;20026;-49
2023/12/16 00:48:23;;;;;;;29.55;22.50;;;;;;;;;;5013567;28;20108;-53
2023/12/16 00:50:49;;;;;;;31.13;23.25;;;;;;;;;;5013674;28;20110;-50
2023/12/16 00:53:15;;;;;;;30.13;24.27;;;;;;;;;;5013449;28;20022;-50
2023/12/16 00:55:41;;;;;;;30.63;21.75;;;;;;;;;;5013327;28;20030;-49
2023/12/16 00:58:08;;;;;;;31.90;22.90;;;;;;;;;;5013294;28;20109;-50
2023/12/16 01:00:34;;;;;;;31.65;23.35;;;;;;;;;;5013252;28;20022;-50
2023/12/16 01:03:00;;;;;;;32.38;23.25;;;;;;;;;;5013195;28;20056;-50
2023/12/16 01:05:26;;;;;;;28.85;22.70;;;;;;;;;;5012927;28;20034;-49
2023/12/16 01:07:52;;;;;;;28.75;21.48;;;;;;;;;;5013179;28;20029;-52
2023/12/16 01:10:18;;;;;;;28.55;22.02;;;;;;;;;;5011828;28;20026;-50
2023/12/16 01:12:45;;;;;;;28.23;21.95;;;;;;;;;;5017589;28;20439;-54
2023/12/16 01:15:11;;;;;;;27.58;21.05;;;;;;;;;;5021950;28;20100;-52
2023/12/16 01:17:37;;;;;;;27.60;21.20;;;;;;;;;;5012873;28;20034;-51
2023/12/16 01:20:03;;;;;;;25.00;19.98;;;;;;;;;;5013330;28;20487;-49
2023/12/16 01:22:29;;;;;;;29.70;22.13;;;;;;;;;;5012732;28;20480;-52
2023/12/16 01:24:55;;;;;;;28.55;21.83;;;;;;;;;;5012761;28;20180;-52
2023/12/16 01:27:21;;;;;;;29.58;21.42;;;;;;;;;;5013148;28;20435;-52
2023/12/16 01:29:47;;;;;;;31.52;21.52;;;;;;;;;;5012793;28;20025;-55
2023/12/16 01:32:13;;;;;;;27.48;20.45;;;;;;;;;;5012875;28;20026;-54
2023/12/16 01:34:39;;;;;;;29.13;21.25;;;;;;;;;;5012708;28;20096;-49
2023/12/16 01:37:05;;;;;;;26.75;21.42;;;;;;;;;;5012924;28;20017;-51
2023/12/16 01:39:31;;;;;;;26.80;20.00;;;;;;;;;;5012609;28;20028;-50
2023/12/16 01:41:57;;;;;;;28.70;20.25;;;;;;;;;;5012728;28;20059;-55
2023/12/16 01:44:23;;;;;;;29.83;21.17;;;;;;;;;;5012630;28;20093;-52
2023/12/16 01:46:49;;;;;;;28.55;20.77;;;;;;;;;;5012527;28;20376;-50
2023/12/16 01:49:15;;;;;;;27.80;21.20;;;;;;;;;;5012616;28;20025;-50
2023/12/16 01:51:42;;;;;;;26.90;21.13;;;;;;;;;;5012567;28;20028;-51
2023/12/16 01:54:09;;;;;;;26.92;21.45;;;;;;;;;;5012368;28;20018;-51
2023/12/16 01:56:35;;;;;;;23.50;19.60;;;;;;;;;;5011552;28;20571;-52
2023/12/16 01:59:01;;;;;;;26.42;21.13;;;;;;;;;;5012382;28;20097;-50
2023/12/16 02:01:27;;;;;;;23.90;20.02;;;;;;;;;;5012374;28;20030;-54
2023/12/16 02:03:54;;;;;;;24.52;19.38;;;;;;;;;;5011195;28;20080;-55
2023/12/16 02:06:20;;;;;;;24.90;19.02;;;;;;;;;;5010778;28;20042;-52
2023/12/16 02:08:46;;;;;;;27.73;18.02;;;;;;;;;;5010993;28;20477;-54
2023/12/16 02:11:12;;;;;;;22.70;17.08;;;;;;;;;;5009671;28;20109;-55
2023/12/16 02:13:40;;;;;;;22.02;15.93;;;;;;;;;;5008948;28;20026;-52
2023/12/16 02:16:06;;;;;;;19.42;15.98;;;;;;;;;;5009593;28;20535;-53
2023/12/16 02:18:32;;;;;;;21.40;15.40;;;;;;;;;;5011643;28;20037;-51
2023/12/16 02:20:58;;;;;;;19.65;14.32;;;;;;;;;;5009861;28;20716;-54
2023/12/16 02:23:24;;;;;;;17.75;13.75;;;;;;;;;;5011547;28;20026;-51
2023/12/16 02:25:50;;;;;;;19.83;13.45;;;;;;;;;;5011305;28;20037;-54
2023/12/16 02:28:16;;;;;;;17.33;12.43;;;;;;;;;;5010868;28;20052;-53
2023/12/16 02:30:42;;;;;;;19.58;11.35;;;;;;;;;;5011560;28;20037;-49
2023/12/16 02:33:08;;;;;;;14.40;11.48;;;;;;;;;;5011368;28;20479;-49
2023/12/16 02:35:34;;;;;;;17.30;10.00;;;;;;;;;;5011269;28;20029;-53
2023/12/16 02:38:00;;;;;;;12.70;10.02;;;;;;;;;;5011212;28;20056;-51
2023/12/16 02:40:26;;;;;;;12.55;9.88;;;;;;;;;;5011185;28;20449;-50
2023/12/16 02:42:52;;;;;;;12.73;9.88;;;;;;;;;;5011239;28;20105;-53
2023/12/16 02:45:19;;;;;;;15.73;9.13;;;;;;;;;;5010920;28;20479;-50
2023/12/16 02:47:45;;;;;;;11.30;8.35;;;;;;;;;;5011260;28;20189;-50
2023/12/16 02:50:11;;;;;;;11.13;8.13;;;;;;;;;;5011213;28;20541;-50
2023/12/16 02:52:37;;;;;;;10.23;7.53;;;;;;;;;;5010955;28;20032;-53
2023/12/16 02:55:03;;;;;;;10.77;7.97;;;;;;;;;;5011003;28;20054;-50
2023/12/16 02:57:29;;;;;;;10.05;7.72;;;;;;;;;;5009545;28;20030;-52
2023/12/16 02:59:55;;;;;;;8.32;6.90;;;;;;;;;;5009720;28;20076;-51
2023/12/16 03:02:21;;;;;;;10.88;7.32;;;;;;;;;;5011069;28;20030;-50
2023/12/16 03:04:47;;;;;;;10.50;6.18;;;;;;;;;;5024636;28;20403;-52
2023/12/16 03:07:13;;;;;;;10.05;5.85;;;;;;;;;;5011070;28;20034;-52
2023/12/16 03:09:39;;;;;;;9.63;5.53;;;;;;;;;;5010926;28;20025;-50
2023/12/16 03:12:06;;;;;;;8.80;6.05;;;;;;;;;;5010916;28;20030;-49
2023/12/16 03:14:34;;;;;;;8.40;5.28;;;;;;;;;;5005569;28;20077;-50
2023/12/16 03:17:00;;;;;;;7.15;5.85;;;;;;;;;;5010789;28;20052;-53
2023/12/16 03:19:27;;;;;;;6.60;5.32;;;;;;;;;;5009967;28;20033;-52
2023/12/16 03:21:53;;;;;;;7.80;5.38;;;;;;;;;;5010106;28;20100;-50
2023/12/16 03:24:19;;;;;;;8.15;5.70;;;;;;;;;;5010747;28;20025;-50
2023/12/16 03:26:45;;;;;;;7.93;5.30;;;;;;;;;;5010798;28;20041;-50
2023/12/16 03:29:11;;;;;;;8.05;4.95;;;;;;;;;;5010999;28;20033;-53
2023/12/16 03:31:37;;;;;;;9.07;5.55;;;;;;;;;;5010640;28;20546;-49
2023/12/16 03:34:03;;;;;;;9.25;5.20;;;;;;;;;;5010715;28;20093;-49
2023/12/16 03:36:29;;;;;;;8.15;4.72;;;;;;;;;;5009130;28;20022;-50
2023/12/16 03:38:56;;;;;;;6.50;5.03;;;;;;;;;;5010630;28;20082;-51
2023/12/16 03:41:22;;;;;;;8.02;4.60;;;;;;;;;;5011577;28;20030;-50
2023/12/16 03:43:54;;;;;;;8.35;5.13;;;;;;;;;;5013904;28;20452;-49
2023/12/16 03:46:21;;;;;;;9.95;4.95;;;;;;;;;;5013968;28;20100;-49
2023/12/16 03:48:47;;;;;;;7.60;5.32;;;;;;;;;;5000385;28;20434;-55
2023/12/16 03:51:13;;;;;;;7.03;4.65;;;;;;;;;;5013849;28;20026;-54
2023/12/16 03:53:39;;;;;;;8.70;4.72;;;;;;;;;;5013735;28;20022;-53
2023/12/16 03:56:06;;;;;;;6.63;4.78;;;;;;;;;;5012842;28;20114;-53
2023/12/16 03:58:32;;;;;;;8.55;4.70;;;;;;;;;;5011691;28;20109;-55
2023/12/16 04:00:58;;;;;;;7.70;4.53;;;;;;;;;;5011996;28;20096;-53
2023/12/16 04:03:24;;;;;;;6.60;4.40;;;;;;;;;;5013351;28;20018;-49
2023/12/16 04:05:50;;;;;;;4.70;3.72;;;;;;;;;;5013442;28;20039;-51
2023/12/16 04:08:16;;;;;;;6.20;4.45;;;;;;;;;;5013656;28;20524;-53
2023/12/16 04:10:42;;;;;;;5.68;4.38;;;;;;;;;;5013562;28;20124;-51
2023/12/16 04:13:08;;;;;;;8.27;4.35;;;;;;;;;;5013353;28;20100;-52
2023/12/16 04:15:34;;;;;;;6.65;4.18;;;;;;;;;;5013173;28;20046;-50
2023/12/16 04:18:00;;;;;;;6.85;3.95;;;;;;;;;;5020529;28;20048;-53
2023/12/16 04:20:26;;;;;;;7.43;4.07;;;;;;;;;;5020110;28;20025;-49
2023/12/16 04:22:52;;;;;;;6.75;4.32;;;;;;;;;;5012933;28;20021;-49
2023/12/16 04:25:18;;;;;;;7.07;3.88;;;;;;;;;;5013954;28;20025;-52
2023/12/16 04:27:44;;;;;;;6.47;4.13;;;;;;;;;;5012930;28;20022;-55
2023/12/16 04:30:10;;;;;;;5.43;3.75;;;;;;;;;;5015839;28;20100;-52
2023/12/16 04:32:36;;;;;;;5.40;3.88;;;;;;;;;;5022473;28;20084;-53
2023/12/16 04:35:02;;;;;;;9.30;4.00;;;;;;;;;;5011749;28;20022;-49
2023/12/16 04:37:28;;;;;;;5.88;3.97;;;;;;;;;;5012462;28;20033;-52
2023/12/16 04:39:54;;;;;;;5.28;3.80;;;;;;;;;;5016473;28;20068;-52
2023/12/16 04:42:20;;;;;;;7.30;3.53;;;;;;;;;;5024803;28;20029;-51
2023/12/16 04:44:46;;;;;;;8.88;3.92;;;;;;;;;;5021114;28;20029;-51
2023/12/16 04:47:12;;;;;;;4.95;3.42;;;;;;;;;;5019825;28;20504;-52
2023/12/16 04:49:40;;;;;;;6.82;3.63;;;;;;;;;;5013595;28;20080;-51
2023/12/16 04:52:06;;;;;;;3.65;2.95;;;;;;;;;;5013374;28;20053;-52
2023/12/16 04:54:32;;;;;;;8.25;3.58;;;;;;;;;;5025965;28;20052;-51
2023/12/16 04:56:58;;;;;;;5.15;3.42;;;;;;;;;;5013494;28;20028;-48
2023/12/16 04:59:24;;;;;;;4.10;3.40;;;;;;;;;;5013457;28;20498;-51
2023/12/16 05:01:50;;;;;;;6.55;3.80;;;;;;;;;;5013629;28;20025;-48
2023/12/16 05:04:16;;;;;;;5.25;3.30;;;;;;;;;;5013571;28;20026;-54
2023/12/16 05:06:42;;;;;;;4.32;3.03;;;;;;;;;;5013078;28;20033;-54
2023/12/16 05:09:12;;;;;;;5.45;3.47;;;;;;;;;;5013194;28;20105;-50
2023/12/16 05:11:38;;;;;;;4.90;3.80;;;;;;;;;;5027283;28;20010;-52
2023/12/16 05:14:04;;;;;;;5.38;3.28;;;;;;;;;;5013160;28;20170;-49
2023/12/16 05:16:30;;;;;;;6.85;3.58;;;;;;;;;;5012851;28;20201;-51
2023/12/16 05:18:56;;;;;;;5.15;3.70;;;;;;;;;;5013228;28;20029;-53
2023/12/16 05:21:22;;;;;;;6.65;3.17;;;;;;;;;;5013007;28;20026;-51
2023/12/16 05:23:48;;;;;;;6.05;3.47;;;;;;;;;;5013275;28;20026;-52
2023/12/16 05:26:14;;;;;;;6.47;3.80;;;;;;;;;;5012877;28;20387;-53
2023/12/16 05:28:40;;;;;;;5.20;3.65;;;;;;;;;;5012758;28;20528;-54
2023/12/16 05:31:06;;;;;;;7.43;4.20;;;;;;;;;;5012914;28;20270;-55
2023/12/16 05:33:32;;;;;;;6.68;3.17;;;;;;;;;;5012943;28;20022;-51
2023/12/16 05:35:59;;;;;;;6.10;3.43;;;;;;;;;;5012661;28;20064;-53
2023/12/16 05:38:25;;;;;;;6.28;3.70;;;;;;;;;;5012629;28;20033;-53
2023/12/16 05:40:52;;;;;;;5.43;3.75;;;;;;;;;;5012774;28;20360;-53
2023/12/16 05:43:18;;;;;;;6.43;3.55;;;;;;;;;;5012526;28;20109;-52
2023/12/16 05:45:44;;;;;;;7.57;4.03;;;;;;;;;;5026311;28;20113;-55
2023/12/16 05:48:11;;;;;;;6.18;3.70;;;;;;;;;;5012385;28;20018;-55
2023/12/16 05:50:37;;;;;;;6.28;3.53;;;;;;;;;;5012644;28;20053;-52
2023/12/16 05:53:05;;;;;;;4.85;3.08;;;;;;;;;;5012525;28;20033;-54
2023/12/16 05:55:32;;;;;;;7.25;3.72;;;;;;;;;;5012502;28;20025;-50
2023/12/16 05:57:58;;;;;;;4.63;3.58;;;;;;;;;;5012329;28;20500;-52
2023/12/16 06:00:24;;;;;;;6.32;3.97;;;;;;;;;;5012215;28;20030;-49
2023/12/16 06:02:50;;;;;;;6.40;4.35;;;;;;;;;;5011705;28;20092;-52
2023/12/16 06:05:16;;;;;;;8.05;3.95;;;;;;;;;;5010614;28;20121;-50
2023/12/16 06:07:42;;;;;;;8.73;4.43;;;;;;;;;;5009014;28;20104;-51
2023/12/16 06:10:08;;;;;;;9.30;5.20;;;;;;;;;;5006378;28;20026;-51
2023/12/16 06:12:34;;;;;;;10.07;5.30;;;;;;;;;;5012155;28;20018;-51
2023/12/16 06:15:00;;;;;;;7.75;4.70;;;;;;;;;;5012165;28;20029;-50
2023/12/16 06:17:26;;;;;;;6.78;4.43;;;;;;;;;;5012193;28;20056;-51
2023/12/16 06:19:52;;;;;;;7.47;4.00;;;;;;;;;;5012038;28;20153;-50
2023/12/16 06:22:18;;;;;;;12.48;4.85;;;;;;;;;;5012159;28;20030;-48
2023/12/16 06:24:44;;;;;;;7.15;5.20;;;;;;;;;;5012001;28;20045;-50
2023/12/16 06:27:10;;;;;;;10.73;5.63;;;;;;;;;;5011822;28;20038;-49
2023/12/16 06:29:36;;;;;;;10.30;5.55;;;;;;;;;;5012135;28;20379;-50
2023/12/16 06:32:03;;;;;;;11.40;6.25;;;;;;;;;;5010109;28;20030;-48
2023/12/16 06:34:29;;;;;;;9.20;6.40;;;;;;;;;;5011837;28;20486;-50
2023/12/16 06:36:55;;;;;;;9.85;6.40;;;;;;;;;;5011762;28;20022;-51
2023/12/16 06:39:21;;;;;;;10.75;6.38;;;;;;;;;;5011660;28;20528;-53
2023/12/16 06:41:47;;;;;;;11.77;6.50;;;;;;;;;;5012039;28;20025;-52
2023/12/16 06:44:13;;;;;;;8.40;6.07;;;;;;;;;;5016888;28;20053;-51
2023/12/16 06:46:39;;;;;;;10.25;6.35;;;;;;;;;;5020333;28;20033;-50
2023/12/16 06:49:05;;;;;;;11.80;6.32;;;;;;;;;;5011893;28;20068;-52
2023/12/16 06:51:31;;;;;;;11.40;5.75;;;;;;;;;;5010425;28;20030;-48
2023/12/16 06:53:57;;;;;;;9.05;6.15;;;;;;;;;;5011991;28;20034;-53
2023/12/16 06:56:23;;;;;;;9.63;6.10;;;;;;;;;;5010425;28;20038;-49
2023/12/16 06:58:49;;;;;;;9.93;6.15;;;;;;;;;;5011631;28;20380;-53
2023/12/16 07:01:15;;;;;;;10.30;6.03;;;;;;;;;;5011510;28;20022;-53
2023/12/16 07:03:41;;;;;;;9.52;6.28;;;;;;;;;;5011564;28;20022;-49
2023/12/16 07:06:07;;;;;;;8.90;6.43;;;;;;;;;;5011425;28;20102;-50
2023/12/16 07:08:35;;;;;;;6.72;5.68;;;;;;;;;;5011709;28;20422;-50
2023/12/16 07:11:03;;;;;;;9.88;6.35;;;;;;;;;;5010198;28;20030;-50
2023/12/16 07:13:29;;;;;;;10.95;6.60;;;;;;;;;;5011707;28;20498;-50
2023/12/16 07:16:04;;;;;;;9.98;6.35;;;;;;;;;;5014437;28;20045;-50
2023/12/16 07:18:30;;;;;;;9.13;6.07;;;;;;;;;;5015612;28;20026;-51
2023/12/16 07:20:56;;;;;;;14.77;6.70;;;;;;;;;;5013658;28;20094;-55
2023/12/16 07:23:23;;;;;;;10.30;5.97;;;;;;;;;;5015262;28;20026;-52
2023/12/16 07:25:50;;;;;;;8.80;6.03;;;;;;;;;;5013874;28;20380;-50
2023/12/16 07:28:16;;;;;;;9.52;5.57;;;;;;;;;;5014930;28;20014;-51
2023/12/16 07:30:42;;;;;;;13.98;5.53;;;;;;;;;;5015187;28;20030;-53
2023/12/16 07:33:08;;;;;;;8.25;4.93;;;;;;;;;;5015160;28;20345;-49
2023/12/16 07:35:35;;;;;;;11.75;5.13;;;;;;;;;;5015275;28;20083;-52
2023/12/16 07:38:01;;;;;;;7.88;4.03;;;;;;;;;;5014749;28;20030;-50
2023/12/16 07:40:27;;;;;;;9.63;5.07;;;;;;;;;;5015020;28;20108;-49
2023/12/16 07:42:53;;;;;;;7.22;4.25;;;;;;;;;;5015005;28;20415;-48
2023/12/16 07:45:19;;;;;;;6.85;3.97;;;;;;;;;;5028444;28;20025;-53
2023/12/16 07:47:45;;;;;;;6.97;4.28;;;;;;;;;;5014890;28;20021;-49
2023/12/16 07:50:11;;;;;;;6.50;4.13;;;;;;;;;;5014719;28;20026;-52
2023/12/16 07:52:37;;;;;;;5.40;4.30;;;;;;;;;;5014558;28;20177;-51
2023/12/16 07:55:03;;;;;;;7.85;3.97;;;;;;;;;;5014749;28;20042;-50
2023/12/16 07:57:29;;;;;;;6.63;4.45;;;;;;;;;;5014686;28;20033;-48
2023/12/16 07:59:56;;;;;;;7.97;4.57;;;;;;;;;;5014720;28;20026;-49
2023/12/16 08:02:22;;;;;;;9.73;5.10;;;;;;;;;;5014518;28;20021;-49
2023/12/16 08:04:49;;;;;;;6.80;4.53;;;;;;;;;;5014554;28;20433;-50
2023/12/16 08:07:15;;;;;;;7.93;4.25;;;;;;;;;;5014354;28;20068;-50
2023/12/16 08:09:41;;;;;;;9.25;4.65;;;;;;;;;;5014445;28;20021;-53
2023/12/16 08:12:07;;;;;;;11.60;5.38;;;;;;;;;;5014427;28;20030;-51
2023/12/16 08:14:33;;;;;;;9.10;5.03;;;;;;;;;;5014414;28;20464;-54
2023/12/16 08:17:00;;;;;;;9.40;5.25;;;;;;;;;;5012956;28;20052;-53
2023/12/16 08:19:25;;;;;;;6.60;4.38;;;;;;;;;;5014330;28;20026;-55
2023/12/16 08:21:52;;;;;;;7.28;4.90;;;;;;;;;;5014636;28;20161;-55
2023/12/16 08:24:18;;;;;;;7.20;4.53;;;;;;;;;;5006587;28;20372;-53
2023/12/16 08:26:47;;;;;;;8.65;4.43;;;;;;;;;;5012604;28;20101;-61
2023/12/16 08:29:13;;;;;;;9.48;5.25;;;;;;;;;;5013974;28;20439;-60
2023/12/16 08:31:39;;;;;;;11.20;4.95;;;;;;;;;;5012579;28;20101;-60
2023/12/16 08:34:05;;;;;;;14.68;6.18;;;;;;;;;;5035681;28;20034;-60
2023/12/16 08:36:31;;;;;;;9.35;6.15;;;;;;;;;;5013816;28;20053;-60
2023/12/16 08:38:57;;;;;;;14.95;6.45;;;;;;;;;;5014305;28;20037;-61
2023/12/16 08:41:23;;;;;;;9.75;6.45;;;;;;;;;;5008819;28;20101;-58
2023/12/16 08:43:49;;;;;;;16.77;7.30;;;;;;;;;;5015588;28;20033;-59
2023/12/16 08:46:15;;;;;;;9.55;7.03;;;;;;;;;;5018464;28;20030;-58
2023/12/16 08:48:41;;;;;;;10.93;6.72;;;;;;;;;;5023005;28;20079;-59
2023/12/16 08:51:07;;;;;;;12.93;7.45;;;;;;;;;;5012418;28;20030;-59
2023/12/16 08:53:33;;;;;;;11.48;7.47;;;;;;;;;;5013593;28;20026;-57
2023/12/16 08:55:59;;;;;;;13.20;7.28;;;;;;;;;;5013612;28;20026;-60
2023/12/16 08:58:25;;;;;;;12.77;8.02;;;;;;;;;;5012068;28;20399;-59
2023/12/16 09:00:52;;;;;;;11.75;7.53;;;;;;;;;;5011658;28;20095;-57
2023/12/16 09:03:18;;;;;;;13.00;7.63;;;;;;;;;;5010739;28;20080;-59
2023/12/16 09:05:44;;;;;;;13.05;9.38;;;;;;;;;;5022988;28;20406;-60
2023/12/16 09:08:10;;;;;;;16.92;8.52;;;;;;;;;;5022128;28;20029;-59
2023/12/16 09:10:36;;;;;;;14.32;7.53;;;;;;;;;;5010858;28;20489;-59
2023/12/16 09:13:02;;;;;;;14.23;8.25;;;;;;;;;;5011662;28;20029;-56
2023/12/16 09:15:28;;;;;;;12.95;7.80;;;;;;;;;;5013102;28;20049;-57
2023/12/16 09:17:54;;;;;;;14.20;7.93;;;;;;;;;;5013176;28;20040;-57
2023/12/16 09:20:20;;;;;;;11.10;7.22;;;;;;;;;;5011499;28;20026;-58
2023/12/16 09:22:46;;;;;;;11.68;6.72;;;;;;;;;;5012789;28;20026;-59
2023/12/16 09:25:12;;;;;;;10.57;7.57;;;;;;;;;;5012746;28;20049;-57
2023/12/16 09:27:38;;;;;;;15.32;8.10;;;;;;;;;;5016624;28;20036;-58
2023/12/16 09:30:04;;;;;;;9.88;7.55;;;;;;;;;;5020431;28;20034;-59
2023/12/16 09:32:30;;;;;;;10.55;7.50;;;;;;;;;;5011886;28;20036;-58
2023/12/16 09:34:56;;;;;;;15.45;9.20;;;;;;;;;;5010659;28;20034;-59
2023/12/16 09:37:22;;;;;;;12.10;7.63;;;;;;;;;;5024055;28;20117;-59
2023/12/16 09:39:48;;;;;;;12.48;8.45;;;;;;;;;;5003924;28;20401;-58
2023/12/16 09:42:14;;;;;;;11.55;8.20;;;;;;;;;;5005036;28;20096;-59
2023/12/16 09:44:42;;;;;;;13.05;8.38;;;;;;;;;;5010087;28;20030;-57
2023/12/16 09:47:11;;;;;;;12.00;8.80;;;;;;;;;;5008911;28;20045;-57
2023/12/16 09:49:38;;;;;;;13.88;9.85;;;;;;;;;;5005247;28;20026;-58
2023/12/16 09:52:04;;;;;;;14.85;8.57;;;;;;;;;;5012885;28;20475;-57
2023/12/16 09:54:30;;;;;;;12.90;9.68;;;;;;;;;;5013615;28;20071;-57
2023/12/16 09:56:57;;;;;;;14.40;8.70;;;;;;;;;;4998503;28;20109;-57
2023/12/16 09:59:24;;;;;;;15.30;9.43;;;;;;;;;;5012305;28;20116;-59
2023/12/16 10:01:51;;;;;;;11.18;8.57;;;;;;;;;;5013649;28;20037;-58
2023/12/16 10:04:17;;;;;;;11.98;9.30;;;;;;;;;;5004896;28;20037;-57
2023/12/16 10:06:43;;;;;;;10.15;8.30;;;;;;;;;;5009718;28;20037;-61
2023/12/16 10:09:09;;;;;;;16.60;8.18;;;;;;;;;;5005922;28;20022;-61
2023/12/16 10:11:41;;;;;;;13.80;8.98;;;;;;;;;;5019750;28;20097;-60
2023/12/16 10:14:07;;;;;;;13.57;8.95;;;;;;;;;;5000776;28;20041;-60
2023/12/16 10:16:34;;;;;;;21.65;8.68;;;;;;;;;;5011004;28;20116;-60
2023/12/16 10:19:01;;;;;;;12.57;7.97;;;;;;;;;;5018681;28;20069;-60
2023/12/16 10:21:28;;;;;;;12.13;8.57;;;;;;;;;;5015844;28;20049;-60
2023/12/16 10:23:58;;;;;;;10.43;7.47;;;;;;;;;;5011804;28;20069;-60
2023/12/16 10:26:24;;;;;;;12.15;7.65;;;;;;;;;;5011805;28;20041;-60
2023/12/16 10:28:51;;;;;;;11.27;8.65;;;;;;;;;;5010928;28;20022;-62
2023/12/16 10:31:21;;;;;;;12.63;7.63;;;;;;;;;;5011732;28;20038;-62
2023/12/16 10:33:47;;;;;;;12.15;7.43;;;;;;;;;;5010468;28;20100;-62
2023/12/16 10:36:13;;;;;;;11.15;7.00;;;;;;;;;;5008768;28;20113;-61
2023/12/16 10:38:40;;;;;;;9.55;7.35;;;;;;;;;;5008893;28;20130;-61
2023/12/16 10:41:06;;;;;;;11.65;7.15;;;;;;;;;;5010815;28;20034;-61
2023/12/16 10:43:33;;;;;;;12.35;6.35;;;;;;;;;;5005289;28;20022;-62
2023/12/16 10:46:04;;;;;;;11.45;7.07;;;;;;;;;;5011701;28;20030;-62
2023/12/16 10:48:32;;;;;;;8.98;5.97;;;;;;;;;;5002186;28;20034;-53
2023/12/16 10:51:00;;;;;;;9.15;6.25;;;;;;;;;;5013466;28;20100;-53
2023/12/16 10:53:30;;;;;;;8.85;6.20;;;;;;;;;;5014124;28;20080;-52
2023/12/16 10:55:59;;;;;;;11.32;7.00;;;;;;;;;;5015185;28;20117;-55
2023/12/16 10:58:26;;;;;;;7.45;6.10;;;;;;;;;;5010602;28;20031;-54
2023/12/16 11:00:52;;;;;;;7.50;6.43;;;;;;;;;;5026890;28;20165;-52
2023/12/16 11:03:27;;;;;;;12.10;7.60;;;;;;;;;;5014827;28;20022;-54
2023/12/16 11:06:12;;;;;;;10.52;7.63;;;;;;;;;;5015498;28;20061;-51
2023/12/16 11:08:38;;;;;;;;;;;;;;;;;;5004201;28;20044;-51
2023/12/16 11:11:04;;;;;;;11.95;6.97;;;;;;;;;;5015215;28;20270;-52
2023/12/16 11:13:30;;;;;;;10.10;7.20;;;;;;;;;;5015273;28;20107;-53
2023/12/16 11:16:00;;;;;;;10.98;6.55;;;;;;;;;;5014872;28;20054;-51
2023/12/16 11:18:28;;;;;;;8.52;5.70;;;;;;;;;;5017869;28;20522;-49
2023/12/16 11:20:54;;;;;;;17.05;6.35;;;;;;;;;;5007560;28;20077;-50
2023/12/16 11:23:23;;;;;;;11.70;7.25;;;;;;;;;;5014892;28;20033;-51
2023/12/16 11:25:52;;;;;;;8.15;6.90;;;;;;;;;;5014772;28;20034;-52
2023/12/16 11:28:18;;;;;;;7.97;6.43;;;;;;;;;;5014763;28;20025;-52
2023/12/16 11:30:45;;;;;;;9.43;6.45;;;;;;;;;;5014755;28;20054;-51
2023/12/16 11:33:11;;;;;;;9.27;5.85;;;;;;;;;;5014835;28;20026;-51
2023/12/16 11:35:37;;;;;;;8.30;5.22;;;;;;;;;;5014862;28;20057;-52
2023/12/16 11:38:07;;;;;;;7.93;5.70;;;;;;;;;;5014527;28;20018;-52
2023/12/16 11:40:41;;;;;;;11.20;5.90;;;;;;;;;;5014976;28;20030;-53
2023/12/16 11:43:07;;;;;;;6.70;5.88;;;;;;;;;;5009169;28;20022;-52
2023/12/16 11:45:37;;;;;;;10.18;4.90;;;;;;;;;;5007997;28;20065;-52
2023/12/16 11:48:04;;;;;;;7.50;6.30;;;;;;;;;;5013971;28;20029;-52
2023/12/16 11:50:30;;;;;;;6.93;4.68;;;;;;;;;;5007674;28;20038;-51
2023/12/16 11:52:56;;;;;;;9.32;6.03;;;;;;;;;;5014656;28;20022;-53
2023/12/16 11:55:22;;;;;;;9.70;5.93;;;;;;;;;;5014410;28;20041;-51
2023/12/16 11:57:48;;;;;;;9.63;6.20;;;;;;;;;;5014029;28;20480;-55
2023/12/16 12:00:16;;;;;;;8.32;5.88;;;;;;;;;;5012795;28;20014;-53
2023/12/16 12:02:42;;;;;;;6.10;4.82;;;;;;;;;;5013105;28;20077;-54
2023/12/16 12:05:12;;;;;;;7.15;6.03;;;;;;;;;;5014175;28;20504;-53
2023/12/16 12:07:41;;;;;;;7.80;5.93;;;;;;;;;;5001456;28;20125;-51
2023/12/16 12:10:08;;;;;;;8.38;6.22;;;;;;;;;;5014506;28;20392;-52
2023/12/16 12:12:34;;;;;;;7.72;5.90;;;;;;;;;;5014393;28;20029;-52
2023/12/16 12:15:01;;;;;;;19.92;11.13;;;;;;;;;;5014071;28;20084;-50
2023/12/16 12:17:28;;;;;;;7.40;5.68;;;;;;;;;;5013905;28;20034;-52
2023/12/16 12:19:55;;;;;;;8.25;5.65;;;;;;;;;;5027967;28;20483;-51
2023/12/16 12:22:22;;;;;;;6.32;4.22;;;;;;;;;;5014042;28;20064;-52
2023/12/16 12:24:48;;;;;;;5.25;4.38;;;;;;;;;;5013989;28;20030;-55
2023/12/16 12:27:14;;;;;;;9.68;5.70;;;;;;;;;;5027528;28;20041;-55
2023/12/16 12:29:55;;;;;;;6.88;4.82;;;;;;;;;;5014106;28;20161;-52
2023/12/16 12:32:22;;;;;;;8.68;4.70;;;;;;;;;;5013572;28;20022;-52
2023/12/16 12:34:58;;;;;;;8.63;5.13;;;;;;;;;;5013837;28;20057;-51
2023/12/16 12:37:24;;;;;;;9.23;5.20;;;;;;;;;;5010352;28;20439;-55
2023/12/16 12:39:50;;;;;;;6.85;6.15;;;;;;;;;;5013628;28;20026;-55
2023/12/16 12:42:16;;;;;;;9.45;5.60;;;;;;;;;;5005741;28;20029;-54
2023/12/16 12:44:51;;;;;;;7.88;6.00;;;;;;;;;;5013493;28;20021;-55
2023/12/16 12:47:17;;;;;;;;;;;;;;;;;;5013754;28;20352;-54
2023/12/16 12:49:43;;;;;;;8.93;6.13;;;;;;;;;;5013622;28;19905;-54
2023/12/16 12:52:09;;;;;;;8.35;6.13;;;;;;;;;;5013269;28;20018;-54
2023/12/16 12:54:44;;;;;;;8.98;7.47;;;;;;;;;;5012124;28;20053;-52
2023/12/16 12:57:17;;;;;;;10.65;7.43;;;;;;;;;;5012201;28;20022;-51
2023/12/16 12:59:43;;;;;;;10.13;8.77;;;;;;;;;;5013304;28;20036;-54
2023/12/16 13:02:09;;;;;;;12.48;10.07;;;;;;;;;;5013182;28;20026;-52
2023/12/16 13:04:35;;;;;;;15.65;12.18;;;;;;;;;;5013209;28;20064;-54
2023/12/16 13:07:01;;;;;;;12.35;8.85;;;;;;;;;;5012613;28;20530;-55
2023/12/16 13:09:29;;;;;;;10.60;8.23;;;;;;;;;;5013205;28;20117;-52
2023/12/16 13:11:55;;;;;;;11.30;8.73;;;;;;;;;;5004553;28;20098;-52
2023/12/16 13:14:21;;;;;;;8.30;7.47;;;;;;;;;;5011984;28;20033;-51
2023/12/16 13:16:48;;;;;;;10.80;7.82;;;;;;;;;;5012780;28;20045;-49
2023/12/16 13:19:14;;;;;;;10.15;7.93;;;;;;;;;;5022247;28;20017;-51
2023/12/16 13:21:40;;;;;;;10.18;7.85;;;;;;;;;;5017440;28;20052;-50
2023/12/16 13:24:06;;;;;;;9.25;7.45;;;;;;;;;;5013333;28;20139;-51
2023/12/16 13:26:32;;;;;;;9.38;7.70;;;;;;;;;;5013015;28;20141;-52
2023/12/16 13:28:58;;;;;;;11.38;9.00;;;;;;;;;;5012810;28;20057;-50
2023/12/16 13:31:24;;;;;;;10.55;8.38;;;;;;;;;;5006117;28;20080;-54
2023/12/16 13:33:50;;;;;;;10.73;7.60;;;;;;;;;;5010206;28;20026;-55
2023/12/16 13:36:16;;;;;;;10.25;7.75;;;;;;;;;;5016430;28;20030;-52
2023/12/16 13:38:42;;;;;;;11.50;8.75;;;;;;;;;;5014861;28;20026;-55
2023/12/16 13:41:08;;;;;;;9.35;7.95;;;;;;;;;;5011036;28;20029;-54
2023/12/16 13:43:34;;;;;;;10.88;8.38;;;;;;;;;;5029483;28;20140;-55
2023/12/16 13:46:01;;;;;;;11.73;9.70;;;;;;;;;;5028580;28;20069;-54
2023/12/16 13:48:26;;;;;;;10.15;9.05;;;;;;;;;;5019276;28;20052;-54
2023/12/16 13:50:52;;;;;;;10.55;7.88;;;;;;;;;;5024164;28;20030;-52
2023/12/16 13:53:18;;;;;;;9.98;7.93;;;;;;;;;;5014194;28;20490;-55
2023/12/16 13:55:44;;;;;;;11.70;9.27;;;;;;;;;;5012332;28;20056;-53
2023/12/16 13:58:10;;;;;;;14.23;8.23;;;;;;;;;;5013514;28;20030;-53
2023/12/16 14:00:36;;;;;;;10.05;8.07;;;;;;;;;;5003634;28;20026;-52
2023/12/16 14:03:02;;;;;;;9.43;6.88;;;;;;;;;;5010861;28;20483;-50
2023/12/16 14:05:28;;;;;;;9.93;7.22;;;;;;;;;;5012064;28;20033;-53
2023/12/16 14:07:54;;;;;;;10.50;7.53;;;;;;;;;;5012172;28;20084;-55
2023/12/16 14:10:20;;;;;;;8.07;7.25;;;;;;;;;;5001283;28;20057;-54
2023/12/16 14:12:46;;;;;;;11.85;8.05;;;;;;;;;;5012068;28;20030;-52
2023/12/16 14:15:12;;;;;;;13.23;8.82;;;;;;;;;;5013136;28;20076;-55
2023/12/16 14:17:38;;;;;;;13.07;8.55;;;;;;;;;;5024131;28;20057;-51
2023/12/16 14:20:04;;;;;;;11.63;8.77;;;;;;;;;;5012078;28;20120;-56
2023/12/16 14:22:30;;;;;;;10.35;7.90;;;;;;;;;;5011922;28;20026;-54
2023/12/16 14:24:56;;;;;;;12.18;8.70;;;;;;;;;;5011334;28;20026;-55
2023/12/16 14:27:22;;;;;;;11.77;7.65;;;;;;;;;;5011695;28;20084;-51
2023/12/16 14:29:49;;;;;;;8.70;7.72;;;;;;;;;;5011810;28;20029;-51